createdAt,value
2023-04-07T00:00:33.660Z,10.57
2023-04-07T00:03:02.664Z,12.98
2023-04-07T00:05:30.563Z,12.10
2023-04-07T00:07:58.255Z,16.17
2023-04-07T00:10:26.350Z,12.40
2023-04-07T00:12:54.054Z,13.23
2023-04-07T00:15:21.723Z,31.63
2023-04-07T00:17:49.819Z,41.42
2023-04-07T00:20:17.724Z,40.10
2023-04-07T00:22:45.743Z,29.77
2023-04-07T00:25:13.327Z,29.15
2023-04-07T00:27:41.237Z,16.63
2023-04-07T00:30:09.276Z,20.42
2023-04-07T00:32:37.056Z,21.17
2023-04-07T00:35:05.179Z,16.60
2023-04-07T00:37:33.031Z,21.13
2023-04-07T00:40:00.784Z,40.95
2023-04-07T00:42:28.892Z,83.45
2023-04-07T00:44:56.486Z,63.35
2023-04-07T00:47:24.429Z,71.40
2023-04-07T00:49:52.153Z,57.63
2023-04-07T00:52:27.313Z,33.08
2023-04-07T00:54:59.453Z,44.20
2023-04-07T00:57:27.493Z,22.40
2023-04-07T00:59:56.421Z,31.95
2023-04-07T01:02:36.718Z,32.28
2023-04-07T01:05:16.484Z,39.30
2023-04-07T01:08:00.864Z,26.92
2023-04-07T01:11:08.836Z,19.75
2023-04-07T01:13:57.953Z,23.77
2023-04-07T01:16:52.413Z,19.08
2023-04-07T01:19:38.215Z,15.68
2023-04-07T01:22:15.479Z,13.40
2023-04-07T01:25:24.791Z,14.77
2023-04-07T01:28:10.586Z,18.30
2023-04-07T01:30:41.848Z,31.95
2023-04-07T01:33:12.562Z,17.20
2023-04-07T01:35:41.771Z,13.90
2023-04-07T01:38:11.357Z,17.63
2023-04-07T01:40:40.670Z,12.63
2023-04-07T01:43:09.127Z,13.18
2023-04-07T01:45:38.499Z,18.27
2023-04-07T01:48:07.762Z,15.57
2023-04-07T01:50:36.692Z,12.27
2023-04-07T01:53:05.068Z,15.35
2023-04-07T01:55:33.648Z,17.45
2023-04-07T01:58:06.690Z,13.93
2023-04-07T02:00:36.484Z,13.10
2023-04-07T02:03:21.413Z,13.45
2023-04-07T02:05:54.797Z,12.43
2023-04-07T02:08:29.182Z,12.38
2023-04-07T02:10:59.579Z,10.75
2023-04-07T02:13:32.221Z,9.93
2023-04-07T02:16:01.731Z,10.45
2023-04-07T02:18:32.415Z,10.45
2023-04-07T02:21:02.404Z,8.88
2023-04-07T02:23:30.416Z,12.43
2023-04-07T02:25:58.323Z,11.57
2023-04-07T02:28:26.094Z,11.38
2023-04-07T02:30:53.653Z,13.00
2023-04-07T02:33:21.365Z,12.10
2023-04-07T02:35:49.219Z,13.90
2023-04-07T02:38:16.854Z,8.20
2023-04-07T02:40:44.369Z,10.52
2023-04-07T02:43:12.082Z,10.15
2023-04-07T02:45:39.716Z,9.70
2023-04-07T02:48:07.454Z,15.63
2023-04-07T02:50:35.162Z,11.15
2023-04-07T02:53:02.779Z,11.02
2023-04-07T02:55:31.421Z,12.52
2023-04-07T02:57:59.033Z,16.90
2023-04-07T03:00:45.765Z,17.15
2023-04-07T03:03:22.988Z,17.63
2023-04-07T03:06:16.795Z,41.97
2023-04-07T03:08:55.778Z,21.38
2023-04-07T03:11:23.391Z,11.25
2023-04-07T03:13:52.069Z,10.00
2023-04-07T03:16:19.863Z,9.07
2023-04-07T03:19:00.067Z,14.13
2023-04-07T03:21:29.079Z,9.98
2023-04-07T03:23:56.825Z,10.95
2023-04-07T03:26:24.852Z,24.00
2023-04-07T03:28:52.896Z,23.63
2023-04-07T03:31:22.016Z,37.58
2023-04-07T03:33:52.508Z,18.77
2023-04-07T03:36:22.559Z,14.90
2023-04-07T03:38:50.988Z,10.20
2023-04-07T03:41:19.764Z,15.45
2023-04-07T03:43:48.297Z,17.30
2023-04-07T03:46:16.407Z,11.82
2023-04-07T03:48:45.157Z,9.52
2023-04-07T03:51:13.166Z,15.75
2023-04-07T03:53:41.550Z,11.07
2023-04-07T03:56:23.544Z,13.43
2023-04-07T03:58:51.745Z,10.68
2023-04-07T04:01:27.648Z,13.05
2023-04-07T04:03:57.285Z,11.48
2023-04-07T04:06:27.908Z,10.98
2023-04-07T04:09:02.877Z,12.00
2023-04-07T04:11:33.226Z,14.98
2023-04-07T04:14:04.861Z,9.80
2023-04-07T04:16:36.110Z,11.68
2023-04-07T04:19:09.916Z,9.55
2023-04-07T04:21:37.646Z,16.08
2023-04-07T04:24:05.747Z,15.93
2023-04-07T04:26:33.917Z,15.27
2023-04-07T04:29:07.513Z,15.02
2023-04-07T04:31:35.144Z,16.20
2023-04-07T04:34:03.018Z,18.75
2023-04-07T04:36:31.810Z,20.50
2023-04-07T04:39:04.932Z,15.50
2023-04-07T04:41:34.356Z,16.88
2023-04-07T04:44:02.834Z,17.92
2023-04-07T04:46:32.054Z,15.65
2023-04-07T04:49:00.386Z,16.55
2023-04-07T04:51:28.609Z,18.55
2023-04-07T04:54:04.021Z,21.42
2023-04-07T04:56:32.182Z,19.30
2023-04-07T04:59:00.273Z,22.45
2023-04-07T05:01:39.802Z,20.15
2023-04-07T05:04:11.284Z,20.50
2023-04-07T05:06:44.837Z,17.65
2023-04-07T05:09:14.487Z,16.30
2023-04-07T05:11:45.680Z,14.75
2023-04-07T05:14:13.273Z,18.42
2023-04-07T05:16:45.491Z,17.35
2023-04-07T05:19:18.818Z,14.80
2023-04-07T05:21:47.040Z,17.30
2023-04-07T05:24:15.152Z,16.38
2023-04-07T05:26:43.727Z,16.83
2023-04-07T05:29:11.371Z,16.73
2023-04-07T05:31:41.310Z,17.15
2023-04-07T05:36:46.569Z,20.75
2023-04-07T05:39:14.210Z,20.35
2023-04-07T05:41:42.395Z,16.23
2023-04-07T05:44:10.725Z,14.23
2023-04-07T05:46:41.827Z,13.55
2023-04-07T05:49:19.662Z,17.92
2023-04-07T05:54:21.196Z,13.07
2023-04-07T05:56:50.075Z,16.55
2023-04-07T05:59:17.777Z,19.70
2023-04-07T06:01:46.722Z,17.52
2023-04-07T06:04:14.469Z,16.98
2023-04-07T06:06:42.618Z,14.60
2023-04-07T06:09:10.405Z,20.73
2023-04-07T06:11:38.074Z,24.73
2023-04-07T06:14:05.775Z,19.50
2023-04-07T06:16:33.414Z,24.73
2023-04-07T06:19:01.534Z,24.98
2023-04-07T06:21:30.839Z,18.90
2023-04-07T06:23:58.450Z,14.68
2023-04-07T06:26:27.300Z,18.15
2023-04-07T06:28:56.778Z,19.45
2023-04-07T06:31:26.334Z,23.75
2023-04-07T06:33:54.032Z,19.55
2023-04-07T06:36:21.955Z,18.52
2023-04-07T06:38:49.818Z,14.70
2023-04-07T06:41:17.430Z,15.43
2023-04-07T06:43:49.463Z,20.33
2023-04-07T06:46:18.018Z,18.20
2023-04-07T06:48:46.450Z,14.27
2023-04-07T06:51:14.023Z,13.43
2023-04-07T06:53:41.995Z,15.38
2023-04-07T06:56:11.611Z,16.65
2023-04-07T06:58:39.241Z,14.95
2023-04-07T07:01:07.169Z,14.15
2023-04-07T07:03:34.898Z,19.83
2023-04-07T07:06:02.579Z,15.43
2023-04-07T07:08:31.069Z,17.83
2023-04-07T07:10:59.045Z,26.70
2023-04-07T07:13:27.546Z,18.70
2023-04-07T07:15:55.891Z,15.40
2023-04-07T07:18:23.621Z,16.75
2023-04-07T07:20:51.312Z,13.25
2023-04-07T07:23:18.881Z,13.32
2023-04-07T07:25:46.953Z,14.68
2023-04-07T07:28:14.537Z,13.65
2023-04-07T07:30:42.424Z,13.02
2023-04-07T07:33:10.087Z,14.85
2023-04-07T07:35:38.109Z,13.10
2023-04-07T07:38:06.160Z,17.17
2023-04-07T07:40:34.253Z,15.55
2023-04-07T07:43:01.891Z,13.07
2023-04-07T07:45:29.500Z,11.98
2023-04-07T07:47:57.291Z,8.00
2023-04-07T07:50:24.977Z,12.98
2023-04-07T07:52:52.575Z,10.45
2023-04-07T07:55:20.758Z,16.40
2023-04-07T07:57:48.401Z,11.20
2023-04-07T08:00:16.156Z,13.35
2023-04-07T08:02:43.795Z,19.00
2023-04-07T08:05:11.781Z,17.02
2023-04-07T08:07:40.003Z,17.85
2023-04-07T08:10:08.491Z,20.48
2023-04-07T08:12:36.179Z,16.08
2023-04-07T08:15:04.158Z,19.13
2023-04-07T08:17:31.775Z,17.55
2023-04-07T08:19:59.424Z,19.60
2023-04-07T08:22:27.080Z,17.08
2023-04-07T08:24:54.760Z,15.85
2023-04-07T08:27:22.554Z,12.32
2023-04-07T08:30:04.429Z,15.55
2023-04-07T08:32:43.153Z,14.32
2023-04-07T08:35:11.541Z,14.05
2023-04-07T08:37:41.296Z,12.95
2023-04-07T08:40:09.551Z,18.15
2023-04-07T08:42:43.034Z,17.08
2023-04-07T08:45:11.050Z,22.05
2023-04-07T08:47:42.097Z,20.77
2023-04-07T08:50:11.908Z,15.43
2023-04-07T08:52:50.825Z,15.27
2023-04-07T08:55:18.981Z,15.75
2023-04-07T08:57:47.511Z,15.48
2023-04-07T09:00:16.209Z,14.63
2023-04-07T09:02:45.752Z,24.08
2023-04-07T09:05:17.180Z,22.20
2023-04-07T09:07:45.030Z,19.10
2023-04-07T09:10:12.746Z,23.05
2023-04-07T09:12:40.611Z,15.63
2023-04-07T09:15:09.020Z,13.73
2023-04-07T09:17:37.361Z,18.17
2023-04-07T09:20:05.805Z,20.80
2023-04-07T09:22:38.540Z,23.85
2023-04-07T09:28:04.982Z,17.67
2023-04-07T09:30:33.932Z,20.85
2023-04-07T09:33:02.550Z,20.10
2023-04-07T09:35:30.766Z,21.38
2023-04-07T09:38:04.074Z,17.83
2023-04-07T09:40:32.485Z,16.92
2023-04-07T09:43:00.596Z,19.25
2023-04-07T09:48:00.250Z,16.67
2023-04-07T09:50:36.941Z,20.95
2023-04-07T09:53:05.065Z,17.73
2023-04-07T09:55:34.000Z,20.60
2023-04-07T09:58:02.270Z,18.00
2023-04-07T10:00:29.974Z,19.58
2023-04-07T10:02:58.352Z,21.08
2023-04-07T10:05:27.732Z,20.83
2023-04-07T10:07:56.648Z,21.33
2023-04-07T10:10:25.878Z,25.08
2023-04-07T10:12:55.909Z,19.00
2023-04-07T10:15:23.913Z,25.77
2023-04-07T10:17:53.325Z,25.67
2023-04-07T10:20:21.892Z,18.25
2023-04-07T10:22:51.626Z,20.88
2023-04-07T10:25:22.677Z,19.80
2023-04-07T10:27:55.298Z,17.15
2023-04-07T10:30:28.108Z,19.33
2023-04-07T10:32:56.388Z,21.48
2023-04-07T10:35:24.067Z,21.52
2023-04-07T10:38:16.828Z,19.52
2023-04-07T10:40:44.873Z,23.33
2023-04-07T10:43:12.664Z,20.25
2023-04-07T10:45:49.253Z,19.33
2023-04-07T10:48:18.393Z,23.75
2023-04-07T10:51:07.647Z,17.65
2023-04-07T10:53:35.419Z,22.58
2023-04-07T10:56:03.293Z,18.52
2023-04-07T10:58:34.350Z,18.85
2023-04-07T11:01:08.320Z,31.90
2023-04-07T11:03:37.616Z,30.35
2023-04-07T11:06:12.916Z,21.00
2023-04-07T11:08:48.711Z,22.98
2023-04-07T11:11:34.597Z,17.55
2023-04-07T11:14:02.646Z,22.23
2023-04-07T11:16:42.751Z,21.08
2023-04-07T11:19:11.355Z,20.90
2023-04-07T11:21:39.313Z,21.23
2023-04-07T11:24:07.138Z,17.83
2023-04-07T11:26:41.845Z,23.48
2023-04-07T11:29:12.382Z,29.60
2023-04-07T11:31:40.321Z,18.98
2023-04-07T11:34:09.203Z,17.23
2023-04-07T11:36:41.732Z,19.67
2023-04-07T11:39:22.378Z,21.80
2023-04-07T11:41:51.250Z,21.80
2023-04-07T11:44:19.130Z,23.80
2023-04-07T11:47:01.047Z,31.67
2023-04-07T11:49:29.261Z,29.10
2023-04-07T11:52:07.293Z,21.55
2023-04-07T11:54:42.687Z,20.40
2023-04-07T11:57:13.084Z,21.85
2023-04-07T11:59:42.187Z,31.45
2023-04-07T12:02:10.348Z,19.08
2023-04-07T12:04:41.162Z,19.25
2023-04-07T12:07:12.593Z,20.67
2023-04-07T12:09:40.395Z,18.33
2023-04-07T12:12:08.798Z,16.50
2023-04-07T12:14:37.299Z,18.58
2023-04-07T12:17:05.369Z,26.20
2023-04-07T12:19:36.010Z,22.98
2023-04-07T12:22:04.032Z,24.38
2023-04-07T12:24:32.719Z,20.98
2023-04-07T12:27:00.376Z,23.35
2023-04-07T12:29:28.183Z,20.85
2023-04-07T12:31:56.694Z,17.50
2023-04-07T12:34:24.606Z,17.85
2023-04-07T12:36:52.525Z,19.73
2023-04-07T12:39:20.193Z,21.70
2023-04-07T12:41:48.907Z,21.77
2023-04-07T12:44:16.821Z,16.95
2023-04-07T12:46:45.044Z,17.98
2023-04-07T12:49:12.651Z,17.25
2023-04-07T12:51:40.731Z,19.27
2023-04-07T12:54:08.456Z,19.08
2023-04-07T12:56:36.535Z,22.20
2023-04-07T12:59:04.512Z,20.05
2023-04-07T13:01:34.374Z,20.92
2023-04-07T13:04:02.308Z,23.10
2023-04-07T13:06:30.930Z,42.50
2023-04-07T13:08:58.785Z,29.35
2023-04-07T13:11:26.682Z,22.45
2023-04-07T13:13:56.508Z,23.60
2023-04-07T13:16:24.996Z,26.30
2023-04-07T13:18:53.284Z,22.77
2023-04-07T13:21:43.705Z,26.80
2023-04-07T13:24:09.601Z,23.83
2023-04-07T13:26:37.223Z,50.42
2023-04-07T13:29:05.040Z,50.15
2023-04-07T13:31:32.817Z,49.03
2023-04-07T13:34:00.538Z,25.60
2023-04-07T13:36:28.575Z,20.95
2023-04-07T13:38:57.082Z,19.98
2023-04-07T13:41:24.763Z,19.23
2023-04-07T13:43:52.493Z,22.88
2023-04-07T13:46:28.536Z,20.00
2023-04-07T13:48:57.118Z,16.73
2023-04-07T13:51:25.033Z,20.48
2023-04-07T13:53:52.718Z,19.65
2023-04-07T13:56:20.399Z,28.23
2023-04-07T13:58:48.104Z,16.90
2023-04-07T14:01:16.169Z,17.42
2023-04-07T14:03:44.219Z,25.52
2023-04-07T14:06:12.139Z,18.67
2023-04-07T14:08:39.908Z,19.33
2023-04-07T14:11:07.482Z,21.75
2023-04-07T14:13:35.308Z,22.90
2023-04-07T14:16:03.399Z,20.95
2023-04-07T14:18:31.574Z,23.15
2023-04-07T14:21:00.599Z,20.20
2023-04-07T14:23:36.719Z,18.60
2023-04-07T14:26:15.860Z,24.70
2023-04-07T14:28:43.545Z,26.25
2023-04-07T14:31:16.580Z,23.95
2023-04-07T14:33:44.940Z,21.30
2023-04-07T14:36:16.099Z,19.80
2023-04-07T14:38:44.703Z,21.65
2023-04-07T14:41:13.223Z,21.50
2023-04-07T14:43:41.959Z,27.88
2023-04-07T14:46:10.155Z,29.23
2023-04-07T14:48:38.180Z,26.83
2023-04-07T14:51:12.001Z,24.92
2023-04-07T14:53:42.148Z,23.17
2023-04-07T14:56:09.911Z,21.00
2023-04-07T14:58:39.143Z,20.75
2023-04-07T15:01:07.652Z,21.70
2023-04-07T15:03:36.054Z,21.27
2023-04-07T15:06:08.300Z,20.10
2023-04-07T15:08:36.803Z,18.92
2023-04-07T15:11:06.280Z,22.40
2023-04-07T15:13:34.686Z,21.10
2023-04-07T15:16:10.767Z,22.40
2023-04-07T15:18:41.186Z,23.83
2023-04-07T15:21:09.626Z,23.88
2023-04-07T15:23:38.506Z,23.15
2023-04-07T15:26:06.723Z,17.63
2023-04-07T15:28:34.557Z,20.90
2023-04-07T15:31:02.584Z,28.60
2023-04-07T15:33:30.408Z,22.90
2023-04-07T15:35:59.467Z,26.05
2023-04-07T15:38:29.379Z,25.80
2023-04-07T15:40:57.459Z,35.70
2023-04-07T15:43:26.128Z,30.55
2023-04-07T15:45:55.954Z,36.08
2023-04-07T15:48:24.155Z,39.58
2023-04-07T15:50:53.674Z,26.45
2023-04-07T15:53:21.666Z,27.70
2023-04-07T15:55:49.287Z,24.77
2023-04-07T15:58:17.176Z,23.92
2023-04-07T16:00:45.151Z,31.50
2023-04-07T16:03:12.960Z,32.28
2023-04-07T16:05:40.726Z,27.75
2023-04-07T16:08:08.402Z,33.53
2023-04-07T16:10:36.128Z,33.17
2023-04-07T16:13:03.692Z,37.40
2023-04-07T16:15:40.019Z,30.25
2023-04-07T16:18:10.091Z,23.23
2023-04-07T16:20:37.810Z,29.48
2023-04-07T16:23:05.753Z,26.13
2023-04-07T16:25:33.455Z,27.33
2023-04-07T16:28:01.053Z,31.15
2023-04-07T16:30:28.813Z,26.67
2023-04-07T16:32:56.805Z,25.35
2023-04-07T16:35:24.612Z,21.98
2023-04-07T16:37:54.823Z,25.35
2023-04-07T16:40:22.513Z,28.13
2023-04-07T16:42:50.121Z,29.67
2023-04-07T16:45:17.967Z,24.88
2023-04-07T16:47:45.686Z,29.98
2023-04-07T16:50:13.346Z,25.58
2023-04-07T16:52:40.878Z,25.77
2023-04-07T16:55:08.891Z,39.65
2023-04-07T16:57:36.498Z,48.33
2023-04-07T17:00:05.427Z,34.55
2023-04-07T17:02:33.403Z,33.35
2023-04-07T17:05:01.123Z,29.35
2023-04-07T17:07:28.747Z,56.20
2023-04-07T17:09:56.379Z,45.03
2023-04-07T17:12:24.063Z,38.63
2023-04-07T17:14:51.712Z,33.22
2023-04-07T17:17:19.509Z,33.33
2023-04-07T17:19:47.449Z,30.63
2023-04-07T17:22:15.231Z,25.70
2023-04-07T17:24:43.020Z,32.42
2023-04-07T17:27:10.945Z,26.73
2023-04-07T17:29:38.605Z,38.55
2023-04-07T17:32:06.759Z,38.10
2023-04-07T17:34:34.392Z,44.45
2023-04-07T17:37:02.031Z,37.65
2023-04-07T17:39:33.068Z,30.15
2023-04-07T17:42:00.885Z,31.42
2023-04-07T17:44:28.584Z,28.85
2023-04-07T17:46:56.477Z,24.42
2023-04-07T17:49:25.176Z,28.85
2023-04-07T17:51:52.824Z,28.33
2023-04-07T17:54:20.492Z,28.23
2023-04-07T17:56:48.112Z,28.48
2023-04-07T17:59:16.002Z,27.75
2023-04-07T18:01:44.114Z,30.80
2023-04-07T18:04:15.075Z,26.67
2023-04-07T18:06:42.868Z,28.05
2023-04-07T18:09:10.523Z,29.60
2023-04-07T18:11:38.690Z,27.40
2023-04-07T18:14:06.433Z,29.42
2023-04-07T18:16:34.521Z,27.83
2023-04-07T18:19:02.938Z,31.92
2023-04-07T18:21:31.330Z,36.88
2023-04-07T18:23:58.882Z,90.32
2023-04-07T18:26:26.731Z,72.15
2023-04-07T18:28:54.311Z,66.65
2023-04-07T18:31:22.010Z,37.25
2023-04-07T18:33:50.024Z,30.27
2023-04-07T18:36:19.014Z,27.25
2023-04-07T18:38:46.678Z,23.50
2023-04-07T18:41:14.349Z,22.48
2023-04-07T18:43:42.398Z,27.90
2023-04-07T18:46:10.317Z,22.20
2023-04-07T18:48:38.475Z,23.27
2023-04-07T18:51:06.797Z,20.73
2023-04-07T18:53:34.598Z,24.58
2023-04-07T18:56:02.578Z,25.63
2023-04-07T18:58:30.813Z,22.25
2023-04-07T19:00:58.652Z,28.10
2023-04-07T19:03:26.728Z,19.60
2023-04-07T19:05:55.433Z,17.05
2023-04-07T19:08:23.083Z,15.90
2023-04-07T19:10:51.144Z,20.48
2023-04-07T19:13:19.486Z,19.55
2023-04-07T19:15:47.829Z,15.88
2023-04-07T19:18:16.063Z,19.08
2023-04-07T19:20:44.377Z,17.98
2023-04-07T19:23:12.124Z,19.13
2023-04-07T19:25:40.455Z,15.32
2023-04-07T19:28:08.285Z,17.20
2023-04-07T19:30:36.132Z,20.75
2023-04-07T19:33:04.066Z,23.58
2023-04-07T19:35:33.712Z,19.42
2023-04-07T19:38:02.468Z,26.15
2023-04-07T19:40:31.627Z,16.52
2023-04-07T19:43:00.260Z,19.38
2023-04-07T19:45:28.584Z,18.33
2023-04-07T19:47:57.419Z,18.55
2023-04-07T19:50:25.715Z,18.98
2023-04-07T19:52:53.556Z,17.23
2023-04-07T19:55:21.283Z,20.80
2023-04-07T19:57:48.954Z,19.95
2023-04-07T20:00:16.820Z,18.13
2023-04-07T20:02:50.459Z,16.42
2023-04-07T20:05:19.746Z,20.25
2023-04-07T20:07:47.926Z,21.58
2023-04-07T20:10:15.720Z,19.85
2023-04-07T20:12:43.421Z,22.20
2023-04-07T20:15:11.798Z,15.00
2023-04-07T20:17:39.523Z,18.15
2023-04-07T20:20:07.635Z,19.30
2023-04-07T20:22:36.149Z,18.92
2023-04-07T20:25:05.487Z,25.67
2023-04-07T20:27:33.816Z,21.52
2023-04-07T20:30:02.698Z,19.08
2023-04-07T20:32:31.225Z,22.20
2023-04-07T20:34:59.193Z,19.75
2023-04-07T20:37:28.016Z,23.05
2023-04-07T20:39:55.752Z,23.02
2023-04-07T20:42:23.781Z,20.38
2023-04-07T20:44:55.807Z,22.95
2023-04-07T20:47:23.802Z,19.23
2023-04-07T20:49:53.342Z,18.23
2023-04-07T20:52:21.095Z,28.55
2023-04-07T20:54:48.859Z,30.02
2023-04-07T20:57:17.370Z,31.70
2023-04-07T20:59:44.949Z,40.22
2023-04-07T21:02:12.868Z,31.60
2023-04-07T21:04:40.684Z,28.50
2023-04-07T21:07:08.354Z,18.75
2023-04-07T21:09:36.038Z,21.85
2023-04-07T21:12:04.464Z,28.55
2023-04-07T21:14:33.651Z,26.42
2023-04-07T21:17:01.288Z,23.15
2023-04-07T21:19:28.905Z,21.35
2023-04-07T21:21:56.546Z,24.40
2023-04-07T21:24:24.173Z,19.85
2023-04-07T21:26:54.310Z,16.00
2023-04-07T21:29:22.610Z,17.27
2023-04-07T21:31:50.716Z,13.70
2023-04-07T21:34:18.413Z,18.80
2023-04-07T21:36:46.278Z,16.27
2023-04-07T21:39:13.915Z,17.10
2023-04-07T21:41:42.332Z,21.02
2023-04-07T21:44:10.774Z,18.88
2023-04-07T21:46:38.467Z,16.65
2023-04-07T21:49:06.325Z,16.33
2023-04-07T21:51:34.383Z,18.77
2023-04-07T21:54:02.096Z,19.13
2023-04-07T21:56:29.641Z,17.75
2023-04-07T21:58:57.395Z,14.82
2023-04-07T22:01:25.025Z,18.23
2023-04-07T22:03:52.783Z,19.27
2023-04-07T22:06:20.798Z,17.38
2023-04-07T22:09:00.684Z,32.78
2023-04-07T22:11:30.132Z,33.92
2023-04-07T22:13:57.906Z,23.90
2023-04-07T22:16:25.946Z,27.33
2023-04-07T22:18:53.491Z,16.40
2023-04-07T22:21:23.645Z,14.73
2023-04-07T22:23:51.241Z,14.00
2023-04-07T22:26:18.927Z,20.63
2023-04-07T22:28:46.639Z,20.55
2023-04-07T22:31:14.352Z,15.25
2023-04-07T22:33:42.128Z,19.00
2023-04-07T22:36:09.856Z,14.00
2023-04-07T22:38:37.753Z,67.03
2023-04-07T22:41:05.462Z,25.20
2023-04-07T22:43:34.146Z,23.70
2023-04-07T22:46:01.896Z,15.75
2023-04-07T22:48:29.565Z,17.35
2023-04-07T22:50:57.536Z,33.40
2023-04-07T22:53:25.905Z,16.33
2023-04-07T22:55:53.474Z,17.13
2023-04-07T22:58:21.098Z,10.63
2023-04-07T23:00:48.912Z,11.25
2023-04-07T23:03:16.741Z,14.40
2023-04-07T23:05:44.315Z,14.20
2023-04-07T23:08:11.932Z,18.65
2023-04-07T23:10:39.570Z,20.00
2023-04-07T23:13:07.181Z,22.55
2023-04-07T23:15:36.205Z,23.20
2023-04-07T23:18:04.029Z,22.75
2023-04-07T23:20:31.791Z,12.32
2023-04-07T23:22:59.467Z,12.73
2023-04-07T23:25:27.555Z,8.65
2023-04-07T23:27:55.781Z,8.70
2023-04-07T23:30:23.292Z,9.27
2023-04-07T23:32:51.146Z,12.27
2023-04-07T23:35:18.880Z,8.45
2023-04-07T23:37:46.522Z,8.80
2023-04-07T23:40:14.379Z,9.60
2023-04-07T23:42:44.932Z,8.18
2023-04-07T23:45:12.514Z,11.05
2023-04-07T23:47:40.216Z,12.88
2023-04-07T23:50:08.720Z,23.63
2023-04-07T23:52:36.316Z,21.27
2023-04-07T23:55:04.277Z,20.30
2023-04-07T23:57:32.040Z,14.48
2023-04-07T23:59:59.662Z,16.73
